createdAt,value
2018-05-02T00:01:06.241Z,4.60
2018-05-02T00:03:39.901Z,5.00
2018-05-02T00:06:13.414Z,5.13
2018-05-02T00:08:46.980Z,4.43
2018-05-02T00:11:20.660Z,5.33
2018-05-02T00:13:54.216Z,5.00
2018-05-02T00:16:27.784Z,4.83
2018-05-02T00:19:01.469Z,4.87
2018-05-02T00:21:35.262Z,5.20
2018-05-02T00:24:08.850Z,4.97
2018-05-02T00:26:42.411Z,5.13
2018-05-02T00:29:15.940Z,6.07
2018-05-02T00:31:49.563Z,5.77
2018-05-02T00:34:23.146Z,5.00
2018-05-02T00:36:56.704Z,5.47
2018-05-02T00:39:30.270Z,5.57
2018-05-02T00:42:03.794Z,5.33
2018-05-02T00:44:37.362Z,5.40
2018-05-02T00:47:11.054Z,4.70
2018-05-02T00:49:44.711Z,4.93
2018-05-02T00:52:18.275Z,5.13
2018-05-02T00:54:51.839Z,5.63
2018-05-02T00:57:25.561Z,5.20
2018-05-02T00:59:59.259Z,5.83
2018-05-02T01:02:32.962Z,5.50
2018-05-02T01:05:06.519Z,5.70
2018-05-02T01:07:40.271Z,5.47
2018-05-02T01:10:13.861Z,5.40
2018-05-02T01:12:47.459Z,5.50
2018-05-02T01:15:21.222Z,5.80
2018-05-02T01:17:54.770Z,5.77
2018-05-02T01:20:28.323Z,6.10
2018-05-02T01:23:02.114Z,5.47
2018-05-02T01:25:35.677Z,5.97
2018-05-02T01:28:09.329Z,6.17
2018-05-02T01:30:42.968Z,6.10
2018-05-02T01:33:16.669Z,5.67
2018-05-02T01:35:50.211Z,5.50
2018-05-02T01:38:23.831Z,6.10
2018-05-02T01:40:57.831Z,5.87
2018-05-02T01:43:31.324Z,6.10
2018-05-02T01:46:04.964Z,5.90
2018-05-02T01:48:38.728Z,5.63
2018-05-02T01:51:12.385Z,6.03
2018-05-02T01:53:46.011Z,5.70
2018-05-02T01:56:19.699Z,6.13
2018-05-02T01:58:53.315Z,6.37
2018-05-02T02:01:27.066Z,5.00
2018-05-02T02:04:00.596Z,5.20
2018-05-02T02:06:34.140Z,6.00
2018-05-02T02:09:07.797Z,5.33
2018-05-02T02:11:41.499Z,5.63
2018-05-02T02:14:15.222Z,6.33
2018-05-02T02:16:48.899Z,6.00
2018-05-02T02:19:22.360Z,6.97
2018-05-02T02:21:55.986Z,5.70
2018-05-02T02:24:29.620Z,5.77
2018-05-02T02:27:03.149Z,6.03
2018-05-02T02:29:36.655Z,5.63
2018-05-02T02:32:10.473Z,6.20
2018-05-02T02:34:44.160Z,5.80
2018-05-02T02:37:17.703Z,6.10
2018-05-02T02:39:51.341Z,6.20
2018-05-02T02:42:24.935Z,5.93
2018-05-02T02:44:58.801Z,5.93
2018-05-02T02:47:32.325Z,6.07
2018-05-02T02:50:05.886Z,5.60
2018-05-02T02:52:39.617Z,5.73
2018-05-02T02:55:13.232Z,5.53
2018-05-02T02:57:46.871Z,6.47
2018-05-02T03:00:20.573Z,5.57
2018-05-02T03:02:54.056Z,5.80
2018-05-02T03:05:27.652Z,5.90
2018-05-02T03:08:01.322Z,6.10
2018-05-02T03:10:34.930Z,5.70
2018-05-02T03:13:08.505Z,5.80
2018-05-02T03:15:42.105Z,6.07
2018-05-02T03:18:15.672Z,5.97
2018-05-02T03:20:49.208Z,6.23
2018-05-02T03:23:22.827Z,5.90
2018-05-02T03:25:56.440Z,5.67
2018-05-02T03:28:30.092Z,6.10
2018-05-02T03:31:03.840Z,6.20
2018-05-02T03:33:37.363Z,6.10
2018-05-02T03:36:11.120Z,6.53
2018-05-02T03:38:44.749Z,5.57
2018-05-02T03:41:18.364Z,6.20
2018-05-02T03:43:52.008Z,5.87
2018-05-02T03:46:25.614Z,6.13
2018-05-02T03:48:59.248Z,6.53
2018-05-02T03:51:32.812Z,5.93
2018-05-02T03:54:06.321Z,5.97
2018-05-02T03:56:39.900Z,6.20
2018-05-02T03:59:13.892Z,6.57
2018-05-02T04:01:59.299Z,6.30
2018-05-02T04:04:45.625Z,6.60
2018-05-02T04:07:19.416Z,6.10
2018-05-02T04:09:53.012Z,6.63
2018-05-02T04:12:26.641Z,6.60
2018-05-02T04:15:00.280Z,6.57
2018-05-02T04:17:33.920Z,6.63
2018-05-02T04:20:07.623Z,6.43
2018-05-02T04:22:41.158Z,6.27
2018-05-02T04:25:14.835Z,6.60
2018-05-02T04:27:48.496Z,6.57
2018-05-02T04:30:22.124Z,6.43
2018-05-02T04:32:55.746Z,7.07
2018-05-02T04:35:29.637Z,6.30
2018-05-02T04:38:03.288Z,6.00
2018-05-02T04:40:36.928Z,6.37
2018-05-02T04:43:10.679Z,6.40
2018-05-02T04:45:44.356Z,6.53
2018-05-02T04:48:18.047Z,6.97
2018-05-02T04:50:51.670Z,7.00
2018-05-02T04:53:25.260Z,5.70
2018-05-02T04:55:58.836Z,6.40
2018-05-02T04:58:32.482Z,6.60
2018-05-02T05:01:06.151Z,5.90
2018-05-02T05:03:39.783Z,6.70
2018-05-02T05:06:13.636Z,6.83
2018-05-02T05:08:47.200Z,5.93
2018-05-02T05:11:20.742Z,6.97
2018-05-02T05:13:54.384Z,6.27
2018-05-02T05:16:28.509Z,6.10
2018-05-02T05:19:02.165Z,6.27
2018-05-02T05:21:35.843Z,5.97
2018-05-02T05:24:09.517Z,6.53
2018-05-02T05:26:43.080Z,6.00
2018-05-02T05:29:16.687Z,5.77
2018-05-02T05:31:50.372Z,5.90
2018-05-02T05:34:23.980Z,6.20
2018-05-02T05:36:57.651Z,5.90
2018-05-02T05:39:31.195Z,6.10
2018-05-02T05:42:05.014Z,6.17
2018-05-02T05:44:38.603Z,5.80
2018-05-02T05:47:12.257Z,6.30
2018-05-02T05:49:45.847Z,6.77
2018-05-02T05:52:19.415Z,5.70
2018-05-02T05:54:53.101Z,6.27
2018-05-02T05:57:26.659Z,5.70
2018-05-02T06:00:00.277Z,6.40
2018-05-02T06:02:33.908Z,5.67
2018-05-02T06:05:07.559Z,5.87
2018-05-02T06:07:41.225Z,5.30
2018-05-02T06:10:14.755Z,5.60
2018-05-02T06:12:48.350Z,4.83
2018-05-02T06:15:21.949Z,5.27
2018-05-02T06:17:55.470Z,4.80
2018-05-02T06:20:29.770Z,4.77
2018-05-02T06:23:03.349Z,4.57
2018-05-02T06:25:36.915Z,4.13
2018-05-02T06:28:10.489Z,4.20
2018-05-02T06:30:44.046Z,4.30
2018-05-02T06:33:17.638Z,4.50
2018-05-02T06:35:51.274Z,4.20
2018-05-02T06:38:24.981Z,3.93
2018-05-02T06:40:58.575Z,4.10
2018-05-02T06:43:32.135Z,3.60
2018-05-02T06:46:05.621Z,3.60
2018-05-02T06:48:39.408Z,3.57
2018-05-02T06:51:13.061Z,3.70
2018-05-02T06:53:46.888Z,3.27
2018-05-02T06:56:20.558Z,3.87
2018-05-02T06:58:54.221Z,3.20
2018-05-02T07:01:27.784Z,3.50
2018-05-02T07:04:01.404Z,4.00
2018-05-02T07:06:35.005Z,3.20
2018-05-02T07:09:08.669Z,3.93
2018-05-02T07:11:42.251Z,3.60
2018-05-02T07:14:15.807Z,3.40
2018-05-02T07:16:49.325Z,3.30
2018-05-02T07:19:23.049Z,3.30
2018-05-02T07:21:56.563Z,3.83
2018-05-02T07:24:30.264Z,3.43
2018-05-02T07:27:03.920Z,3.40
2018-05-02T07:29:37.676Z,3.20
2018-05-02T07:32:11.409Z,3.20
2018-05-02T07:34:45.216Z,3.70
2018-05-02T07:37:18.753Z,3.23
2018-05-02T07:39:52.355Z,3.87
2018-05-02T07:42:26.004Z,3.70
2018-05-02T07:44:59.578Z,3.30
2018-05-02T07:47:33.274Z,3.00
2018-05-02T07:50:07.132Z,3.40
2018-05-02T07:52:40.748Z,3.17
2018-05-02T07:55:14.520Z,3.10
2018-05-02T07:57:48.212Z,3.07
2018-05-02T08:00:22.256Z,3.47
2018-05-02T08:02:55.918Z,3.40
2018-05-02T08:05:29.991Z,3.10
2018-05-02T08:08:03.536Z,3.40
2018-05-02T08:10:37.127Z,3.50
2018-05-02T08:13:10.865Z,3.70
2018-05-02T08:15:44.405Z,3.50
2018-05-02T08:18:18.062Z,3.43
2018-05-02T08:20:51.644Z,3.70
2018-05-02T08:23:25.228Z,3.90
2018-05-02T08:25:58.819Z,3.90
2018-05-02T08:28:32.554Z,3.67
2018-05-02T08:31:06.144Z,3.83
2018-05-02T08:33:39.660Z,4.00
2018-05-02T08:36:13.259Z,3.80
2018-05-02T08:38:47.016Z,3.43
2018-05-02T08:41:20.725Z,3.90
2018-05-02T08:43:54.240Z,3.90
2018-05-02T08:46:28.215Z,3.50
2018-05-02T08:49:01.800Z,3.37
2018-05-02T08:51:35.552Z,3.43
2018-05-02T08:54:09.279Z,3.33
2018-05-02T08:56:42.815Z,3.20
2018-05-02T08:59:16.496Z,3.57
2018-05-02T09:01:50.696Z,3.37
2018-05-02T09:04:24.192Z,3.40
2018-05-02T09:06:57.924Z,3.33
2018-05-02T09:09:31.404Z,3.40
2018-05-02T09:12:04.960Z,3.13
2018-05-02T09:14:38.525Z,3.23
2018-05-02T09:17:12.242Z,3.20
2018-05-02T09:19:45.910Z,3.23
2018-05-02T09:22:19.530Z,2.97
2018-05-02T09:24:53.293Z,3.23
2018-05-02T09:27:27.290Z,2.90
2018-05-02T09:30:00.884Z,3.00
2018-05-02T09:32:34.793Z,2.90
2018-05-02T09:35:08.480Z,3.10
2018-05-02T09:37:42.473Z,3.13
2018-05-02T09:40:16.140Z,2.80
2018-05-02T09:42:49.944Z,2.67
2018-05-02T09:45:23.507Z,2.80
2018-05-02T09:47:57.194Z,2.90
2018-05-02T09:50:30.764Z,2.60
2018-05-02T09:53:04.334Z,2.37
2018-05-02T09:55:37.860Z,2.90
2018-05-02T09:58:11.603Z,2.83
2018-05-02T10:00:45.224Z,2.40
2018-05-02T10:03:19.056Z,2.70
2018-05-02T10:05:52.601Z,2.60
2018-05-02T10:08:26.195Z,2.77
2018-05-02T10:10:59.755Z,1.90
2018-05-02T10:13:33.384Z,1.80
2018-05-02T10:16:06.892Z,2.37
2018-05-02T10:18:40.448Z,2.33
2018-05-02T10:21:14.149Z,2.20
2018-05-02T10:23:47.749Z,2.10
2018-05-02T10:26:21.645Z,2.00
2018-05-02T10:28:55.262Z,1.90
2018-05-02T10:31:28.816Z,2.07
2018-05-02T10:34:02.607Z,2.10
2018-05-02T10:36:36.242Z,2.20
2018-05-02T10:39:09.724Z,2.23
2018-05-02T10:41:43.406Z,2.10
2018-05-02T10:44:17.300Z,2.20
2018-05-02T10:46:50.784Z,2.23
2018-05-02T10:49:24.412Z,2.20
2018-05-02T10:51:58.038Z,2.63
2018-05-02T10:54:31.656Z,2.43
2018-05-02T10:57:05.396Z,2.70
2018-05-02T10:59:38.947Z,2.80
2018-05-02T11:02:12.528Z,2.40
2018-05-02T11:04:46.251Z,2.40
2018-05-02T11:07:19.992Z,1.90
2018-05-02T11:09:53.695Z,2.53
2018-05-02T11:12:27.292Z,2.30
2018-05-02T11:15:00.978Z,2.37
2018-05-02T11:17:34.564Z,2.40
2018-05-02T11:20:08.170Z,2.30
2018-05-02T11:22:41.780Z,2.33
2018-05-02T11:25:15.418Z,2.93
2018-05-02T11:27:48.955Z,2.83
2018-05-02T11:30:22.761Z,3.17
2018-05-02T11:32:56.425Z,2.70
2018-05-02T11:35:30.575Z,2.40
2018-05-02T11:38:04.190Z,2.10
2018-05-02T11:40:37.749Z,2.77
2018-05-02T11:43:11.419Z,3.00
2018-05-02T11:45:44.995Z,3.07
2018-05-02T11:48:18.598Z,3.33
2018-05-02T11:50:52.171Z,2.80
2018-05-02T11:53:25.820Z,2.70
2018-05-02T11:55:59.400Z,3.20
2018-05-02T11:58:32.960Z,2.67
2018-05-02T12:01:06.984Z,3.17
2018-05-02T12:03:40.690Z,2.73
2018-05-02T12:06:14.286Z,2.60
2018-05-02T12:08:48.082Z,2.60
2018-05-02T12:11:21.668Z,2.70
2018-05-02T12:13:55.295Z,2.67
2018-05-02T12:16:28.935Z,2.93
2018-05-02T12:19:02.509Z,2.40
2018-05-02T12:21:36.305Z,2.80
2018-05-02T12:24:10.092Z,2.80
2018-05-02T12:26:43.710Z,2.90
2018-05-02T12:29:17.255Z,2.83
2018-05-02T12:31:50.939Z,2.90
2018-05-02T12:34:24.611Z,3.37
2018-05-02T12:36:58.303Z,3.00
2018-05-02T12:39:31.903Z,2.83
2018-05-02T12:42:05.511Z,2.77
2018-05-02T12:44:39.045Z,2.83
2018-05-02T12:47:15.944Z,2.23
2018-05-02T12:49:49.476Z,2.33
2018-05-02T12:52:23.059Z,2.10
2018-05-02T12:54:56.796Z,2.20
2018-05-02T12:57:30.390Z,2.60
2018-05-02T13:00:03.964Z,2.63
2018-05-02T13:02:37.595Z,2.90
2018-05-02T13:05:11.540Z,2.80
2018-05-02T13:07:45.652Z,2.77
2018-05-02T13:10:19.310Z,2.63
2018-05-02T13:12:52.860Z,2.50
2018-05-02T13:15:26.578Z,2.60
2018-05-02T13:18:00.334Z,2.27
2018-05-02T13:20:34.007Z,2.53
2018-05-02T13:23:07.677Z,3.23
2018-05-02T13:25:41.426Z,3.23
2018-05-02T13:28:14.960Z,3.23
2018-05-02T13:30:48.759Z,2.77
2018-05-02T13:33:22.590Z,2.63
2018-05-02T13:35:56.300Z,2.67
2018-05-02T13:38:29.938Z,2.50
2018-05-02T13:41:03.716Z,2.73
2018-05-02T13:43:37.354Z,2.70
2018-05-02T13:46:11.065Z,2.43
2018-05-02T13:48:44.695Z,2.40
2018-05-02T13:51:18.443Z,2.30
2018-05-02T13:53:52.060Z,2.77
2018-05-02T13:56:25.792Z,2.50
2018-05-02T13:58:59.311Z,2.10
2018-05-02T14:01:32.997Z,2.23
2018-05-02T14:04:06.580Z,2.47
2018-05-02T14:06:40.135Z,2.17
2018-05-02T14:09:13.683Z,1.80
2018-05-02T14:11:47.193Z,1.93
2018-05-02T14:14:20.828Z,1.77
2018-05-02T14:16:54.383Z,1.90
2018-05-02T14:19:28.299Z,1.83
2018-05-02T14:22:02.163Z,2.07
2018-05-02T14:24:35.764Z,2.27
2018-05-02T14:27:09.492Z,2.13
2018-05-02T14:29:43.248Z,2.00
2018-05-02T14:32:16.822Z,1.73
2018-05-02T14:34:50.446Z,1.97
2018-05-02T14:37:24.046Z,1.90
2018-05-02T14:39:57.718Z,1.70
2018-05-02T14:42:31.429Z,1.50
2018-05-02T14:45:04.916Z,2.17
2018-05-02T14:47:38.562Z,2.10
2018-05-02T14:50:12.222Z,2.20
2018-05-02T14:52:45.911Z,1.60
2018-05-02T14:55:19.495Z,2.03
2018-05-02T14:57:53.158Z,1.73
2018-05-02T15:00:26.808Z,1.57
2018-05-02T15:03:00.662Z,1.73
2018-05-02T15:05:34.194Z,2.03
2018-05-02T15:08:07.760Z,1.70
2018-05-02T15:10:41.411Z,1.63
2018-05-02T15:13:15.115Z,2.10
2018-05-02T15:15:48.786Z,1.83
2018-05-02T15:18:22.360Z,1.90
2018-05-02T15:20:56.111Z,1.70
2018-05-02T15:23:29.675Z,1.80
2018-05-02T15:26:03.455Z,1.80
2018-05-02T15:28:37.124Z,1.70
2018-05-02T15:31:10.944Z,1.70
2018-05-02T15:33:44.530Z,1.90
2018-05-02T15:36:18.118Z,2.20
2018-05-02T15:38:51.807Z,1.87
2018-05-02T15:41:25.347Z,1.90
2018-05-02T15:43:59.035Z,1.63
2018-05-02T15:46:32.760Z,1.77
2018-05-02T15:49:06.595Z,2.00
2018-05-02T15:51:40.182Z,1.80
2018-05-02T15:54:13.904Z,1.90
2018-05-02T15:56:47.395Z,1.77
2018-05-02T15:59:20.964Z,1.93
2018-05-02T16:01:54.514Z,2.30
2018-05-02T16:04:28.080Z,2.03
2018-05-02T16:07:01.645Z,1.93
2018-05-02T16:09:35.393Z,1.87
2018-05-02T16:12:09.303Z,2.03
2018-05-02T16:14:43.108Z,2.00
2018-05-02T16:17:17.087Z,2.13
2018-05-02T16:19:51.885Z,2.03
2018-05-02T16:22:25.482Z,2.10
2018-05-02T16:24:59.067Z,2.20
2018-05-02T16:27:32.938Z,2.00
2018-05-02T16:30:06.769Z,2.30
2018-05-02T16:32:40.400Z,2.03
2018-05-02T16:35:14.157Z,2.70
2018-05-02T16:37:48.016Z,2.27
2018-05-02T16:40:21.637Z,2.47
2018-05-02T16:42:55.262Z,2.03
2018-05-02T16:45:29.057Z,2.13
2018-05-02T16:48:02.696Z,2.23
2018-05-02T16:50:36.355Z,2.10
2018-05-02T16:53:10.137Z,2.63
2018-05-02T16:55:43.761Z,2.33
2018-05-02T16:58:17.432Z,2.10
2018-05-02T17:00:51.107Z,1.90
2018-05-02T17:03:24.759Z,2.30
2018-05-02T17:05:58.549Z,2.27
2018-05-02T17:08:32.258Z,2.37
2018-05-02T17:11:06.254Z,2.00
2018-05-02T17:13:40.052Z,2.10
2018-05-02T17:16:13.732Z,2.50
2018-05-02T17:18:47.436Z,2.27
2018-05-02T17:21:20.993Z,2.00
2018-05-02T17:23:54.777Z,2.50
2018-05-02T17:26:28.493Z,2.40
2018-05-02T17:29:02.248Z,2.70
2018-05-02T17:31:35.845Z,2.60
2018-05-02T17:34:09.659Z,2.03
2018-05-02T17:36:43.177Z,2.03
2018-05-02T17:39:17.019Z,2.30
2018-05-02T17:41:50.588Z,2.33
2018-05-02T17:44:24.292Z,2.17
2018-05-02T17:46:58.003Z,2.77
2018-05-02T17:49:31.572Z,2.10
2018-05-02T17:52:05.259Z,2.47
2018-05-02T17:54:38.966Z,2.30
2018-05-02T17:57:12.766Z,2.33
2018-05-02T17:59:46.394Z,2.50
2018-05-02T18:02:19.920Z,2.47
2018-05-02T18:04:53.516Z,2.70
2018-05-02T18:07:27.533Z,2.30
2018-05-02T18:10:01.091Z,2.40
2018-05-02T18:12:34.841Z,2.60
2018-05-02T18:15:08.421Z,2.20
2018-05-02T18:17:42.120Z,2.40
2018-05-02T18:20:15.887Z,3.03
2018-05-02T18:22:49.696Z,2.90
2018-05-02T18:25:23.418Z,2.70
2018-05-02T18:27:57.022Z,2.80
2018-05-02T18:30:30.718Z,2.63
2018-05-02T18:33:04.244Z,2.93
2018-05-02T18:35:37.807Z,2.80
2018-05-02T18:38:11.437Z,2.70
2018-05-02T18:40:45.262Z,3.10
2018-05-02T18:43:19.267Z,2.57
2018-05-02T18:45:52.833Z,2.70
2018-05-02T18:48:26.396Z,2.80
2018-05-02T18:51:00.125Z,2.53
2018-05-02T18:53:33.754Z,2.90
2018-05-02T18:56:07.482Z,2.60
2018-05-02T18:58:41.383Z,2.40
2018-05-02T19:01:15.114Z,2.40
2018-05-02T19:03:49.173Z,2.70
2018-05-02T19:06:22.857Z,2.73
2018-05-02T19:08:56.518Z,3.23
2018-05-02T19:11:30.313Z,2.43
2018-05-02T19:14:04.090Z,2.83
2018-05-02T19:16:37.734Z,2.40
2018-05-02T19:19:17.047Z,2.50
2018-05-02T19:21:50.839Z,2.40
2018-05-02T19:24:24.605Z,2.80
2018-05-02T19:26:58.716Z,2.43
2018-05-02T19:29:32.520Z,2.80
2018-05-02T19:32:12.090Z,2.50
2018-05-02T19:34:45.825Z,2.87
2018-05-02T19:37:19.463Z,2.97
2018-05-02T19:39:58.936Z,2.57
2018-05-02T19:42:38.408Z,2.70
2018-05-02T19:45:12.220Z,2.40
2018-05-02T19:47:45.966Z,2.90
2018-05-02T19:50:19.802Z,3.00
2018-05-02T19:52:53.645Z,3.13
2018-05-02T19:55:27.418Z,2.73
2018-05-02T19:58:01.061Z,3.00
2018-05-02T20:00:40.840Z,2.73
2018-05-02T20:03:14.394Z,2.77
2018-05-02T20:05:48.086Z,3.03
2018-05-02T20:08:27.399Z,2.67
2018-05-02T20:11:06.804Z,2.80
2018-05-02T20:13:46.168Z,2.70
2018-05-02T20:16:19.905Z,2.73
2018-05-02T20:18:53.642Z,2.53
2018-05-02T20:21:27.253Z,2.60
2018-05-02T20:24:01.278Z,3.20
2018-05-02T20:26:34.880Z,2.93
2018-05-02T20:29:08.646Z,2.70
2018-05-02T20:31:42.391Z,2.70
2018-05-02T20:34:16.165Z,2.50
2018-05-02T20:36:50.001Z,2.60
2018-05-02T20:39:24.012Z,2.80
2018-05-02T20:41:57.828Z,2.33
2018-05-02T20:44:31.696Z,2.83
2018-05-02T20:47:11.699Z,2.60
2018-05-02T20:49:45.415Z,2.43
2018-05-02T20:52:19.611Z,2.53
2018-05-02T20:54:53.515Z,2.77
2018-05-02T20:57:27.213Z,2.37
2018-05-02T21:00:01.023Z,2.50
2018-05-02T21:02:34.788Z,3.17
2018-05-02T21:05:08.545Z,2.90
2018-05-02T21:07:42.202Z,3.07
2018-05-02T21:10:15.893Z,2.87
2018-05-02T21:12:49.711Z,3.00
2018-05-02T21:15:23.286Z,2.67
2018-05-02T21:17:56.921Z,2.90
2018-05-02T21:20:30.538Z,2.83
2018-05-02T21:23:04.306Z,3.20
2018-05-02T21:25:39.723Z,3.20
2018-05-02T21:28:13.423Z,3.10
2018-05-02T21:30:47.262Z,3.53
2018-05-02T21:33:20.824Z,3.20
2018-05-02T21:35:54.488Z,3.33
2018-05-02T21:38:28.139Z,3.40
2018-05-02T21:41:01.891Z,3.10
2018-05-02T21:43:35.591Z,2.70
2018-05-02T21:46:09.250Z,2.90
2018-05-02T21:48:43.007Z,2.90
2018-05-02T21:51:16.778Z,2.93
2018-05-02T21:53:50.578Z,3.00
2018-05-02T21:56:24.668Z,3.37
2018-05-02T21:58:58.491Z,3.10
2018-05-02T22:01:32.313Z,2.70
2018-05-02T22:04:06.025Z,3.20
2018-05-02T22:06:39.747Z,3.17
2018-05-02T22:09:13.607Z,2.90
2018-05-02T22:11:47.276Z,3.00
2018-05-02T22:14:21.196Z,3.00
2018-05-02T22:16:55.051Z,2.90
2018-05-02T22:19:28.804Z,3.23
2018-05-02T22:22:02.637Z,3.27
2018-05-02T22:24:36.646Z,3.07
2018-05-02T22:27:10.407Z,3.17
2018-05-02T22:29:44.149Z,3.13
2018-05-02T22:32:17.774Z,2.90
2018-05-02T22:34:51.484Z,2.93
2018-05-02T22:37:29.153Z,3.37
2018-05-02T22:40:04.006Z,3.00
2018-05-02T22:42:37.838Z,3.37
2018-05-02T22:45:14.672Z,3.17
2018-05-02T22:47:49.626Z,3.03
2018-05-02T22:50:28.382Z,3.10
2018-05-02T22:53:04.222Z,2.83
2018-05-02T22:55:39.234Z,3.50
2018-05-02T22:58:13.019Z,3.57
2018-05-02T23:06:06.269Z,3.47
2018-05-02T23:08:40.342Z,3.63
2018-05-02T23:11:14.399Z,4.20
2018-05-02T23:13:48.234Z,3.93
2018-05-02T23:16:22.641Z,3.87
2018-05-02T23:19:01.557Z,3.93
2018-05-02T23:21:36.488Z,3.80
2018-05-02T23:24:10.701Z,3.83
2018-05-02T23:26:44.619Z,3.67
2018-05-02T23:29:18.580Z,3.97
2018-05-02T23:31:57.094Z,4.10
2018-05-02T23:34:30.996Z,4.07
2018-05-02T23:37:04.811Z,3.80
2018-05-02T23:39:38.799Z,3.57
2018-05-02T23:42:12.644Z,4.07
2018-05-02T23:44:46.534Z,3.93
2018-05-02T23:47:20.575Z,3.70
2018-05-02T23:49:54.213Z,3.60
2018-05-02T23:52:27.868Z,3.80
2018-05-02T23:55:01.502Z,3.67
2018-05-02T23:57:35.065Z,3.67
